createdAt,value
2019-02-17T00:01:31.761Z,1.70
2019-02-17T00:03:58.075Z,1.67
2019-02-17T00:06:24.381Z,1.57
2019-02-17T00:08:50.699Z,1.54
2019-02-17T00:11:17.015Z,1.45
2019-02-17T00:13:43.332Z,1.34
2019-02-17T00:16:09.637Z,1.26
2019-02-17T00:18:35.944Z,1.28
2019-02-17T00:21:02.253Z,1.31
2019-02-17T00:23:28.560Z,1.18
2019-02-17T00:25:54.874Z,1.22
2019-02-17T00:28:21.190Z,1.23
2019-02-17T00:30:47.506Z,1.22
2019-02-17T00:33:13.816Z,1.08
2019-02-17T00:35:40.128Z,1.06
2019-02-17T00:38:06.439Z,1.03
2019-02-17T00:40:32.759Z,0.95
2019-02-17T00:42:59.089Z,1.11
2019-02-17T00:45:25.399Z,0.95
2019-02-17T00:47:51.713Z,0.85
2019-02-17T00:50:18.025Z,0.78
2019-02-17T00:52:44.342Z,0.80
2019-02-17T00:55:10.656Z,0.83
2019-02-17T00:57:36.966Z,0.73
2019-02-17T01:00:03.288Z,0.68
2019-02-17T01:02:29.599Z,0.69
2019-02-17T01:04:55.926Z,0.64
2019-02-17T01:07:22.235Z,0.58
2019-02-17T01:09:48.553Z,0.67
2019-02-17T01:12:14.863Z,0.76
2019-02-17T01:14:41.178Z,0.91
2019-02-17T01:17:07.484Z,1.05
2019-02-17T01:19:33.834Z,1.18
2019-02-17T01:22:00.143Z,1.04
2019-02-17T01:24:26.455Z,0.90
2019-02-17T01:26:52.756Z,1.05
2019-02-17T01:29:20.777Z,0.88
2019-02-17T01:31:45.373Z,0.70
2019-02-17T01:34:11.683Z,0.57
2019-02-17T01:36:37.990Z,0.50
2019-02-17T01:39:04.298Z,0.46
2019-02-17T01:41:30.596Z,0.39
2019-02-17T01:43:56.900Z,0.31
2019-02-17T01:46:23.213Z,0.33
2019-02-17T01:48:49.518Z,0.36
2019-02-17T01:51:15.826Z,0.35
2019-02-17T01:53:42.133Z,0.47
2019-02-17T01:56:08.454Z,0.45
2019-02-17T01:58:34.759Z,0.37
2019-02-17T02:01:01.076Z,0.31
2019-02-17T02:03:27.377Z,0.28
2019-02-17T02:05:53.689Z,0.26
2019-02-17T02:08:19.996Z,0.25
2019-02-17T02:10:46.310Z,0.31
2019-02-17T02:13:12.612Z,0.37
2019-02-17T02:15:38.920Z,0.30
2019-02-17T02:18:05.225Z,0.25
2019-02-17T02:20:31.575Z,0.24
2019-02-17T02:22:57.887Z,0.29
2019-02-17T02:25:24.215Z,0.44
2019-02-17T02:27:50.557Z,0.28
2019-02-17T02:30:16.973Z,0.26
2019-02-17T02:32:43.289Z,0.18
2019-02-17T02:35:09.602Z,0.33
2019-02-17T02:37:35.900Z,0.29
2019-02-17T02:40:02.214Z,0.23
2019-02-17T02:42:28.538Z,0.27
2019-02-17T02:44:54.843Z,0.51
2019-02-17T02:47:21.159Z,0.64
2019-02-17T02:49:47.454Z,0.51
2019-02-17T02:52:13.765Z,0.34
2019-02-17T02:54:40.077Z,0.23
2019-02-17T02:57:06.388Z,0.24
2019-02-17T02:59:32.704Z,0.21
2019-02-17T03:01:59.004Z,0.13
2019-02-17T03:04:25.313Z,0.06
2019-02-17T03:06:51.630Z,0.07
2019-02-17T03:09:17.947Z,-0.04
2019-02-17T03:11:44.255Z,-0.07
2019-02-17T03:14:10.557Z,0.05
2019-02-17T03:16:36.867Z,0.12
2019-02-17T03:19:03.182Z,0.03
2019-02-17T03:21:29.484Z,0.02
2019-02-17T03:23:55.784Z,0.00
2019-02-17T03:26:22.093Z,0.16
2019-02-17T03:28:48.400Z,0.08
2019-02-17T03:31:14.705Z,0.05
2019-02-17T03:33:41.010Z,0.15
2019-02-17T03:36:07.316Z,0.11
2019-02-17T03:38:33.620Z,0.00
2019-02-17T03:40:59.986Z,-0.05
2019-02-17T03:43:26.292Z,-0.18
2019-02-17T03:45:52.601Z,-0.21
2019-02-17T03:48:18.905Z,-0.33
2019-02-17T03:50:45.209Z,-0.30
2019-02-17T03:53:11.517Z,-0.40
2019-02-17T03:55:37.822Z,-0.47
2019-02-17T03:58:04.132Z,-0.48
2019-02-17T04:00:30.437Z,-0.43
2019-02-17T04:02:56.741Z,-0.37
2019-02-17T04:05:23.048Z,-0.17
2019-02-17T04:07:49.358Z,-0.25
2019-02-17T04:10:15.666Z,-0.38
2019-02-17T04:12:41.977Z,-0.53
2019-02-17T04:15:08.285Z,-0.61
2019-02-17T04:17:34.599Z,-0.72
2019-02-17T04:20:00.913Z,-0.66
2019-02-17T04:22:27.219Z,-0.54
2019-02-17T04:24:53.526Z,-0.57
2019-02-17T04:27:19.833Z,-0.54
2019-02-17T04:29:46.137Z,-0.42
2019-02-17T04:32:12.448Z,-0.51
2019-02-17T04:34:38.759Z,-0.60
2019-02-17T04:37:05.111Z,-0.58
2019-02-17T04:39:31.425Z,-0.54
2019-02-17T04:41:57.731Z,-0.48
2019-02-17T04:44:24.034Z,-0.58
2019-02-17T04:46:50.342Z,-0.68
2019-02-17T04:49:16.676Z,-0.78
2019-02-17T04:51:42.953Z,-0.71
2019-02-17T04:54:09.266Z,-0.55
2019-02-17T04:56:35.573Z,-0.54
2019-02-17T04:59:01.893Z,-0.63
2019-02-17T05:01:28.204Z,-0.71
2019-02-17T05:03:54.527Z,-0.79
2019-02-17T05:06:20.845Z,-0.82
2019-02-17T05:08:47.127Z,-0.76
2019-02-17T05:11:13.435Z,-0.79
2019-02-17T05:13:39.825Z,-0.91
2019-02-17T05:16:06.126Z,-0.90
2019-02-17T05:18:32.461Z,-0.90
2019-02-17T05:20:58.773Z,-1.01
2019-02-17T05:23:25.080Z,-1.07
2019-02-17T05:25:51.389Z,-1.05
2019-02-17T05:28:17.750Z,-1.06
2019-02-17T05:30:52.289Z,-1.06
2019-02-17T05:33:10.320Z,-0.99
2019-02-17T05:35:36.625Z,-1.04
2019-02-17T05:38:02.927Z,-1.03
2019-02-17T05:40:29.238Z,-0.98
2019-02-17T05:42:55.541Z,-0.77
2019-02-17T05:45:21.857Z,-0.70
2019-02-17T05:47:48.159Z,-0.57
2019-02-17T05:50:14.528Z,-0.54
2019-02-17T05:52:40.920Z,-0.41
2019-02-17T05:55:07.237Z,-0.28
2019-02-17T05:57:33.565Z,0.07
2019-02-17T05:59:59.869Z,0.22
2019-02-17T06:02:26.178Z,0.41
2019-02-17T06:04:52.481Z,0.67
2019-02-17T06:07:18.787Z,0.88
2019-02-17T06:09:45.263Z,1.09
2019-02-17T06:12:11.579Z,1.29
2019-02-17T06:14:37.895Z,1.35
2019-02-17T06:17:04.213Z,1.50
2019-02-17T06:19:30.520Z,1.53
2019-02-17T06:21:56.832Z,1.72
2019-02-17T06:24:23.143Z,1.91
2019-02-17T06:26:49.456Z,2.27
2019-02-17T06:29:15.761Z,2.35
2019-02-17T06:31:42.073Z,2.38
2019-02-17T06:34:08.377Z,2.53
2019-02-17T06:36:34.687Z,2.61
2019-02-17T06:39:01.000Z,2.73
2019-02-17T06:41:27.319Z,3.05
2019-02-17T06:43:53.631Z,3.30
2019-02-17T06:46:19.944Z,3.61
2019-02-17T06:48:46.253Z,3.70
2019-02-17T06:51:12.561Z,3.98
2019-02-17T06:53:38.882Z,4.08
2019-02-17T06:56:05.186Z,4.18
2019-02-17T06:58:31.516Z,4.31
2019-02-17T07:00:57.821Z,4.47
2019-02-17T07:03:24.129Z,4.43
2019-02-17T07:05:50.475Z,3.90
2019-02-17T07:08:16.782Z,4.11
2019-02-17T07:10:43.088Z,4.22
2019-02-17T07:13:09.392Z,4.30
2019-02-17T07:15:35.699Z,4.32
2019-02-17T07:18:02.024Z,4.41
2019-02-17T07:20:28.319Z,4.65
2019-02-17T07:22:54.631Z,4.80
2019-02-17T07:25:29.584Z,5.13
2019-02-17T07:27:47.335Z,5.54
2019-02-17T07:30:13.581Z,5.62
2019-02-17T07:32:39.898Z,5.89
2019-02-17T07:35:06.218Z,6.03
2019-02-17T07:37:33.764Z,5.90
2019-02-17T07:39:58.839Z,6.19
2019-02-17T07:42:25.155Z,5.95
2019-02-17T07:44:51.456Z,5.92
2019-02-17T07:47:18.150Z,5.91
2019-02-17T07:49:44.097Z,6.44
2019-02-17T07:52:10.405Z,6.49
2019-02-17T07:54:36.713Z,6.65
2019-02-17T07:57:03.028Z,6.94
2019-02-17T07:59:29.337Z,6.72
2019-02-17T08:01:55.647Z,6.71
2019-02-17T08:04:21.967Z,6.71
2019-02-17T08:06:48.268Z,6.92
2019-02-17T08:09:14.584Z,7.18
2019-02-17T08:11:40.893Z,7.35
2019-02-17T08:14:07.200Z,7.47
2019-02-17T08:16:33.519Z,7.79
2019-02-17T08:18:59.823Z,7.74
2019-02-17T08:21:26.129Z,8.40
2019-02-17T08:23:52.446Z,8.60
2019-02-17T08:26:18.752Z,9.12
2019-02-17T08:28:45.073Z,9.60
2019-02-17T08:31:11.387Z,10.69
2019-02-17T08:33:37.716Z,10.06
2019-02-17T08:36:04.022Z,9.11
2019-02-17T08:38:30.335Z,9.61
2019-02-17T08:40:56.652Z,9.51
2019-02-17T08:43:22.979Z,10.16
2019-02-17T08:45:49.301Z,10.15
2019-02-17T08:48:15.619Z,9.79
2019-02-17T08:50:41.934Z,9.56
2019-02-17T08:53:08.245Z,9.47
2019-02-17T08:55:34.550Z,9.52
2019-02-17T08:58:00.864Z,9.56
2019-02-17T09:00:27.177Z,9.54
2019-02-17T09:02:53.497Z,9.62
2019-02-17T09:05:19.816Z,9.91
2019-02-17T09:07:46.122Z,9.87
2019-02-17T09:10:12.435Z,9.95
2019-02-17T09:12:38.750Z,10.40
2019-02-17T09:15:05.093Z,10.51
2019-02-17T09:17:31.405Z,11.16
2019-02-17T09:19:57.723Z,11.05
2019-02-17T09:22:24.093Z,11.14
2019-02-17T09:24:50.406Z,11.00
2019-02-17T09:27:16.716Z,11.17
2019-02-17T09:29:43.038Z,11.39
2019-02-17T09:32:16.009Z,11.50
2019-02-17T09:34:35.669Z,11.31
2019-02-17T09:37:01.984Z,11.11
2019-02-17T09:39:28.296Z,11.37
2019-02-17T09:41:54.615Z,11.55
2019-02-17T09:44:20.937Z,11.76
2019-02-17T09:46:47.241Z,11.92
2019-02-17T09:49:13.551Z,11.86
2019-02-17T09:51:39.865Z,11.93
2019-02-17T09:54:06.171Z,11.89
2019-02-17T09:56:32.491Z,11.78
2019-02-17T09:58:58.805Z,11.54
2019-02-17T10:01:25.121Z,11.73
2019-02-17T10:03:51.431Z,12.21
2019-02-17T10:06:17.742Z,12.41
2019-02-17T10:08:44.064Z,12.16
2019-02-17T10:11:10.381Z,12.54
2019-02-17T10:13:36.686Z,12.42
2019-02-17T10:16:03.051Z,12.72
2019-02-17T10:18:29.387Z,13.28
2019-02-17T10:20:55.701Z,13.41
2019-02-17T10:23:22.020Z,13.39
2019-02-17T10:25:48.333Z,12.92
2019-02-17T10:28:14.651Z,13.32
2019-02-17T10:30:40.959Z,13.58
2019-02-17T10:33:07.265Z,14.04
2019-02-17T10:35:33.572Z,14.00
2019-02-17T10:37:59.879Z,14.03
2019-02-17T10:40:26.208Z,13.82
2019-02-17T10:42:52.520Z,14.12
2019-02-17T10:45:18.843Z,14.11
2019-02-17T10:47:45.153Z,14.06
2019-02-17T10:50:11.471Z,14.60
2019-02-17T10:52:37.782Z,15.07
2019-02-17T10:55:04.102Z,15.04
2019-02-17T10:57:30.413Z,14.88
2019-02-17T10:59:56.735Z,15.40
2019-02-17T11:02:23.038Z,15.77
2019-02-17T11:04:49.351Z,15.74
2019-02-17T11:07:15.664Z,15.63
2019-02-17T11:09:41.974Z,15.41
2019-02-17T11:12:08.288Z,15.55
2019-02-17T11:14:34.605Z,15.52
2019-02-17T11:17:00.921Z,15.33
2019-02-17T11:19:27.261Z,15.39
2019-02-17T11:21:53.564Z,15.40
2019-02-17T11:24:19.871Z,15.05
2019-02-17T11:26:46.179Z,15.15
2019-02-17T11:29:12.493Z,15.17
2019-02-17T11:31:38.795Z,15.39
2019-02-17T11:34:05.106Z,16.05
2019-02-17T11:36:31.421Z,16.14
2019-02-17T11:38:57.729Z,16.14
2019-02-17T11:41:24.042Z,16.22
2019-02-17T11:43:50.343Z,16.63
2019-02-17T11:46:16.656Z,16.36
2019-02-17T11:48:42.963Z,15.68
2019-02-17T11:51:09.277Z,15.47
2019-02-17T11:53:35.583Z,15.80
2019-02-17T11:56:01.912Z,15.36
2019-02-17T11:58:28.222Z,15.70
2019-02-17T12:00:54.531Z,16.34
2019-02-17T12:03:20.855Z,16.64
2019-02-17T12:05:47.177Z,16.61
2019-02-17T12:08:13.485Z,16.24
2019-02-17T12:10:39.792Z,16.37
2019-02-17T12:13:06.104Z,16.25
2019-02-17T12:15:32.413Z,16.61
2019-02-17T12:17:59.361Z,16.74
2019-02-17T12:20:25.046Z,16.91
2019-02-17T12:22:51.357Z,16.99
2019-02-17T12:25:17.670Z,17.15
2019-02-17T12:27:43.983Z,16.79
2019-02-17T12:30:10.287Z,16.98
2019-02-17T12:32:36.597Z,17.01
2019-02-17T12:35:02.907Z,17.24
2019-02-17T12:37:29.212Z,17.38
2019-02-17T12:39:55.525Z,17.59
2019-02-17T12:42:21.831Z,17.33
2019-02-17T12:44:48.136Z,17.48
2019-02-17T12:47:14.444Z,17.55
2019-02-17T12:49:40.757Z,17.83
2019-02-17T12:52:07.069Z,17.96
2019-02-17T12:54:33.377Z,18.11
2019-02-17T12:56:59.695Z,17.98
2019-02-17T12:59:26.003Z,17.79
2019-02-17T13:01:52.316Z,17.65
2019-02-17T13:04:18.619Z,17.67
2019-02-17T13:06:44.929Z,17.78
2019-02-17T13:09:11.235Z,17.79
2019-02-17T13:11:37.561Z,17.66
2019-02-17T13:14:03.864Z,17.89
2019-02-17T13:16:30.190Z,17.77
2019-02-17T13:18:56.500Z,17.52
2019-02-17T13:21:22.806Z,17.41
2019-02-17T13:23:49.112Z,17.46
2019-02-17T13:26:15.424Z,17.48
2019-02-17T13:28:41.733Z,17.52
2019-02-17T13:31:08.035Z,17.58
2019-02-17T13:33:39.283Z,17.58
2019-02-17T13:36:00.658Z,17.37
2019-02-17T13:38:26.965Z,17.25
2019-02-17T13:40:53.271Z,17.17
2019-02-17T13:43:19.584Z,17.11
2019-02-17T13:45:45.898Z,16.67
2019-02-17T13:48:12.204Z,16.01
2019-02-17T13:50:38.514Z,15.70
2019-02-17T13:53:11.794Z,15.69
2019-02-17T13:55:31.148Z,15.52
2019-02-17T13:58:00.490Z,15.27
2019-02-17T14:00:26.798Z,15.10
2019-02-17T14:02:53.111Z,15.02
2019-02-17T14:05:19.421Z,14.93
2019-02-17T14:07:46.055Z,15.15
2019-02-17T14:10:12.050Z,14.98
2019-02-17T14:12:38.367Z,14.72
2019-02-17T14:15:04.680Z,14.47
2019-02-17T14:17:30.987Z,14.49
2019-02-17T14:19:57.291Z,14.39
2019-02-17T14:22:23.599Z,14.33
2019-02-17T14:24:49.925Z,14.36
2019-02-17T14:27:16.237Z,14.47
2019-02-17T14:29:42.540Z,14.37
2019-02-17T14:32:08.882Z,14.32
2019-02-17T14:34:35.195Z,14.25
2019-02-17T14:37:01.511Z,14.22
2019-02-17T14:39:27.823Z,14.21
2019-02-17T14:41:54.133Z,14.13
2019-02-17T14:44:20.446Z,14.00
2019-02-17T14:46:46.779Z,13.89
2019-02-17T14:49:13.093Z,13.86
2019-02-17T14:51:39.423Z,13.78
2019-02-17T14:54:06.723Z,13.73
2019-02-17T14:56:32.033Z,13.75
2019-02-17T14:58:58.336Z,13.58
2019-02-17T15:01:24.646Z,13.52
2019-02-17T15:03:50.954Z,13.51
2019-02-17T15:06:17.301Z,13.53
2019-02-17T15:08:43.612Z,13.50
2019-02-17T15:11:09.931Z,13.44
2019-02-17T15:13:36.264Z,13.38
2019-02-17T15:16:02.573Z,13.25
2019-02-17T15:18:28.881Z,13.21
2019-02-17T15:20:55.183Z,13.20
2019-02-17T15:23:21.500Z,13.13
2019-02-17T15:25:47.996Z,13.04
2019-02-17T15:28:14.113Z,12.92
2019-02-17T15:30:40.422Z,12.87
2019-02-17T15:33:06.728Z,12.75
2019-02-17T15:35:33.038Z,12.67
2019-02-17T15:37:59.352Z,12.63
2019-02-17T15:40:25.664Z,12.49
2019-02-17T15:42:51.971Z,12.44
2019-02-17T15:45:18.317Z,12.33
2019-02-17T15:47:44.696Z,12.31
2019-02-17T15:50:10.923Z,12.22
2019-02-17T15:52:37.227Z,12.07
2019-02-17T15:55:03.573Z,12.06
2019-02-17T15:57:29.883Z,11.96
2019-02-17T15:59:56.194Z,11.88
2019-02-17T16:02:22.510Z,11.78
2019-02-17T16:04:48.821Z,11.75
2019-02-17T16:07:15.129Z,11.69
2019-02-17T16:09:41.431Z,11.58
2019-02-17T16:12:07.744Z,11.48
2019-02-17T16:14:34.057Z,11.44
2019-02-17T16:17:00.376Z,11.40
2019-02-17T16:19:26.689Z,11.32
2019-02-17T16:21:53.015Z,11.19
2019-02-17T16:24:19.329Z,11.09
2019-02-17T16:26:45.637Z,11.04
2019-02-17T16:29:11.952Z,10.98
2019-02-17T16:31:38.265Z,11.00
2019-02-17T16:34:04.576Z,10.88
2019-02-17T16:36:30.883Z,10.75
2019-02-17T16:38:57.193Z,10.70
2019-02-17T16:41:23.501Z,10.66
2019-02-17T16:43:49.853Z,10.61
2019-02-17T16:46:16.126Z,10.58
2019-02-17T16:48:42.431Z,10.56
2019-02-17T16:51:08.740Z,10.52
2019-02-17T16:53:35.187Z,10.43
2019-02-17T16:56:03.839Z,10.39
2019-02-17T16:58:30.145Z,10.31
2019-02-17T17:00:56.507Z,10.25
2019-02-17T17:03:22.792Z,10.20
2019-02-17T17:05:49.105Z,10.13
2019-02-17T17:08:15.413Z,10.05
2019-02-17T17:10:41.723Z,9.98
2019-02-17T17:13:08.031Z,9.95
2019-02-17T17:15:34.340Z,9.89
2019-02-17T17:18:00.648Z,9.82
2019-02-17T17:20:26.963Z,9.75
2019-02-17T17:22:53.282Z,9.66
2019-02-17T17:25:19.600Z,9.61
2019-02-17T17:27:45.894Z,9.59
2019-02-17T17:30:12.248Z,9.47
2019-02-17T17:32:38.562Z,9.43
2019-02-17T17:35:04.883Z,9.37
2019-02-17T17:37:31.193Z,9.36
2019-02-17T17:39:57.507Z,9.34
2019-02-17T17:42:23.812Z,9.30
2019-02-17T17:44:50.114Z,9.26
2019-02-17T17:47:16.450Z,9.24
2019-02-17T17:49:42.759Z,9.23
2019-02-17T17:52:09.080Z,9.09
2019-02-17T17:54:35.407Z,9.04
2019-02-17T17:57:01.722Z,9.02
2019-02-17T17:59:30.056Z,8.99
2019-02-17T18:01:54.608Z,9.00
2019-02-17T18:04:20.917Z,8.94
2019-02-17T18:06:47.232Z,8.91
2019-02-17T18:09:13.541Z,8.89
2019-02-17T18:11:39.843Z,8.86
2019-02-17T18:14:06.152Z,8.84
2019-02-17T18:16:32.468Z,8.77
2019-02-17T18:18:58.777Z,8.73
2019-02-17T18:21:25.156Z,8.67
2019-02-17T18:23:51.513Z,8.59
2019-02-17T18:26:17.824Z,8.52
2019-02-17T18:28:46.883Z,8.44
2019-02-17T18:31:13.191Z,8.41
2019-02-17T18:33:39.495Z,8.36
2019-02-17T18:36:05.808Z,8.31
2019-02-17T18:38:32.118Z,8.28
2019-02-17T18:40:58.431Z,8.19
2019-02-17T18:43:24.735Z,8.13
2019-02-17T18:45:51.044Z,8.08
2019-02-17T18:48:17.349Z,8.05
2019-02-17T18:50:46.066Z,8.01
2019-02-17T18:53:12.375Z,8.00
2019-02-17T18:55:38.683Z,7.94
2019-02-17T18:58:05.034Z,7.85
2019-02-17T19:00:31.335Z,7.85
2019-02-17T19:02:57.643Z,7.77
2019-02-17T19:05:31.530Z,7.78
2019-02-17T19:07:53.066Z,7.81
2019-02-17T19:10:19.380Z,7.80
2019-02-17T19:12:45.656Z,7.75
2019-02-17T19:15:11.957Z,7.71
2019-02-17T19:17:38.264Z,7.72
2019-02-17T19:20:04.570Z,7.70
2019-02-17T19:22:30.876Z,7.71
2019-02-17T19:24:57.199Z,7.66
2019-02-17T19:27:23.707Z,7.61
2019-02-17T19:29:50.024Z,7.61
2019-02-17T19:32:16.409Z,7.59
2019-02-17T19:34:42.720Z,7.63
2019-02-17T19:37:09.048Z,7.56
2019-02-17T19:39:35.350Z,7.59
2019-02-17T19:42:01.660Z,7.64
2019-02-17T19:44:27.963Z,7.66
2019-02-17T19:46:54.366Z,7.64
2019-02-17T19:49:20.676Z,7.64
2019-02-17T19:51:47.073Z,7.57
2019-02-17T19:54:13.379Z,7.54
2019-02-17T19:56:40.056Z,7.54
2019-02-17T19:59:06.404Z,7.52
2019-02-17T20:01:34.299Z,7.51
2019-02-17T20:03:59.025Z,7.51
2019-02-17T20:06:25.338Z,7.52
2019-02-17T20:08:51.642Z,7.48
2019-02-17T20:11:17.948Z,7.46
2019-02-17T20:13:44.257Z,7.44
2019-02-17T20:16:10.705Z,7.47
2019-02-17T20:18:37.020Z,7.45
2019-02-17T20:21:03.391Z,7.42
2019-02-17T20:23:29.785Z,7.39
2019-02-17T20:25:57.899Z,7.37
2019-02-17T20:28:35.735Z,7.34
2019-02-17T20:30:48.673Z,7.29
2019-02-17T20:33:14.977Z,7.27
2019-02-17T20:35:41.348Z,7.22
2019-02-17T20:38:07.607Z,7.18
2019-02-17T20:40:33.912Z,7.17
2019-02-17T20:43:00.333Z,7.14
2019-02-17T20:45:26.640Z,7.11
2019-02-17T20:47:52.949Z,7.09
2019-02-17T20:50:19.269Z,7.07
2019-02-17T20:52:45.576Z,7.04
2019-02-17T20:55:11.884Z,6.99
2019-02-17T20:57:38.192Z,7.02
2019-02-17T21:00:04.512Z,6.98
2019-02-17T21:02:30.820Z,6.89
2019-02-17T21:04:57.480Z,6.90
2019-02-17T21:07:23.795Z,6.87
2019-02-17T21:09:50.096Z,6.92
2019-02-17T21:12:16.407Z,6.81
2019-02-17T21:14:42.717Z,6.71
2019-02-17T21:17:09.020Z,6.81
2019-02-17T21:19:35.380Z,6.68
2019-02-17T21:22:01.689Z,6.63
2019-02-17T21:24:28.003Z,6.61
2019-02-17T21:26:54.307Z,6.51
2019-02-17T21:29:20.645Z,6.42
2019-02-17T21:31:46.966Z,6.49
2019-02-17T21:34:13.273Z,6.44
2019-02-17T21:36:39.608Z,6.27
2019-02-17T21:39:05.957Z,5.94
2019-02-17T21:41:32.293Z,5.50
2019-02-17T21:43:58.607Z,5.17
2019-02-17T21:46:24.916Z,5.00
2019-02-17T21:48:51.223Z,4.98
2019-02-17T21:51:17.528Z,4.73
2019-02-17T21:53:43.839Z,4.44
2019-02-17T21:56:10.149Z,4.07
2019-02-17T21:58:36.463Z,3.93
2019-02-17T22:01:03.353Z,3.81
2019-02-17T22:03:29.090Z,3.73
2019-02-17T22:05:55.397Z,3.64
2019-02-17T22:08:21.713Z,3.54
2019-02-17T22:10:48.022Z,3.54
2019-02-17T22:13:14.334Z,3.26
2019-02-17T22:15:40.641Z,3.14
2019-02-17T22:18:06.949Z,3.20
2019-02-17T22:20:33.256Z,3.22
2019-02-17T22:22:59.563Z,3.34
2019-02-17T22:25:25.874Z,3.38
2019-02-17T22:27:52.180Z,3.34
2019-02-17T22:30:18.536Z,3.31
2019-02-17T22:32:44.846Z,3.28
2019-02-17T22:35:11.159Z,3.27
2019-02-17T22:37:37.475Z,3.29
2019-02-17T22:40:03.778Z,3.34
2019-02-17T22:42:30.086Z,3.39
2019-02-17T22:44:56.406Z,3.45
2019-02-17T22:47:22.712Z,3.40
2019-02-17T22:49:49.024Z,3.45
2019-02-17T22:52:15.330Z,3.55
2019-02-17T22:54:41.642Z,3.53
2019-02-17T22:57:07.950Z,3.31
2019-02-17T22:59:34.251Z,3.21
2019-02-17T23:02:00.558Z,3.16
2019-02-17T23:04:26.874Z,3.16
2019-02-17T23:06:54.365Z,3.19
2019-02-17T23:09:19.487Z,3.34
2019-02-17T23:11:45.798Z,3.26
2019-02-17T23:14:12.114Z,3.26
2019-02-17T23:16:38.421Z,3.25
2019-02-17T23:19:04.752Z,3.24
2019-02-17T23:21:31.062Z,3.30
2019-02-17T23:23:57.375Z,3.39
2019-02-17T23:26:23.683Z,3.42
2019-02-17T23:28:50.013Z,3.40
2019-02-17T23:31:16.321Z,3.39
2019-02-17T23:33:42.636Z,3.32
2019-02-17T23:36:08.983Z,3.35
2019-02-17T23:38:35.257Z,3.51
2019-02-17T23:41:01.575Z,3.53
2019-02-17T23:43:27.869Z,3.57
2019-02-17T23:45:54.182Z,3.70
2019-02-17T23:48:20.483Z,3.70
2019-02-17T23:50:46.799Z,3.55
2019-02-17T23:53:13.107Z,3.48
2019-02-17T23:55:39.436Z,3.39
2019-02-17T23:58:05.741Z,3.38
